Iron Mountain, Missouri
Current Conditions -  °F | °C
As of 3:35 AM on Monday 24 Nov 2014 (Local Time) from KFAM Reporting Station
Overcast Overcast  
Wind Chill: 36°   Ceiling: 1600
Heat Index: 45°   Visibility: 10mi
Dew Point: 37°   Wind: 22mph
Humidity: 76%   Direction: 300°WNW
Pressure: 29.39"   Gusts: 31mph
Location:  37.6026°N, 90.6627°W
Report Text: KFAM 240935Z AUTO 30019G27KT 10SM BKN016 OVC024 07/03 A2939 RMK AO1
Loading
Personal Weather Stations






























Interactive Weather Map New forecast layout! Learn more

10-Day Weather Forecast

Advertisements
Track Severe Weather on mobile